Stevensville, MD

4:25 PM EST on December 22, 2014 (GMT -0500)
Cox Creek and Eastern Bay | Change Station
CLOSE
Current Station
Personal Weather Station
Location: Chester, MD
Elevation: 7 ft
Nearby Weather Stations

Elev 7 ft 38.90 °N, 76.30 °W | Updated 9 seconds ago

Rain
Rain
36.6 °F
Feels Like 37 °F
N
2.0
Wind Variable Wind from NNE
Gusts 6.0 mph

Today
High -- | Low -- °F
--% Chance of Precip.
Yesterday
High -- | Low -- °F
Precip. -- in
7:21 AM 4:47 PM
New Moon, 1% visible
Pressure 30.16 in
Visibility 4.0 miles
Clouds
Windchill 37 °F
Dew Point 35 °F
Humidity 94%
Rainfall 0.04 in
Snow Depth Not available.
UV Not available.
Pollen .10 out of 12
Air Quality Not available.
Flu Activity Not available.
METAR KW29 222101Z AUTO 01006KT 4SM -RA 02/01 A3016 RMK AO1

More Conditions Fewer Conditions

Pressure 30.16 in
Visibility 4.0 miles
Clouds
Windchill 37 °F
Dew Point 35 °F
Humidity 94%
Rainfall 0.04 in
Snow Depth Not available.
UV Not available.
Pollen .10 out of 12
Air Quality Not available.
Flu Activity Not available.
METAR KW29 222101Z AUTO 01006KT 4SM -RA 02/01 A3016 RMK AO1

More Conditions Fewer Conditions

10-Day Weather Forecast

Almanac

Astronomy

Dec. 22, 2014 Rise Set
Actual Time
Civil Twilight
Nautical Twilight
Astronomical Twilight
Moon
Length of Visible Light
Length of Day
Tomorrow will be .
, % of the Moon is Illuminated

Today's Extremes

State Highs State Lows

Community

WunderPhotos

Upload Photos

1,779,682 photos uploaded!

WunderBlogs® & News

Nearby

Air Quality

  Air Quality AQ Index Pollutant
Not available.

Snow Depth

Station Depth Elevation

Earthquake Activity

City Distance Mag. Time & Date
Minimum magnitude displayed is 2.5.

Coastal Water Temperatures

Place Temperature

Nearby Weather Stations